createdAt,value
2019-03-18T00:01:48.527Z,8.27
2019-03-18T00:05:56.235Z,8.93
2019-03-18T00:10:04.757Z,9.10
2019-03-18T00:14:12.374Z,9.37
2019-03-18T00:18:20.684Z,15.23
2019-03-18T00:22:28.904Z,14.83
2019-03-18T00:26:36.711Z,10.33
2019-03-18T00:30:44.843Z,16.50
2019-03-18T00:34:52.554Z,17.07
2019-03-18T00:39:00.154Z,15.87
2019-03-18T00:43:08.460Z,9.13
2019-03-18T00:47:16.187Z,9.93
2019-03-18T00:51:23.892Z,10.90
2019-03-18T00:55:31.697Z,8.93
2019-03-18T00:59:40.043Z,10.40
2019-03-18T01:03:48.943Z,9.13
2019-03-18T01:07:56.856Z,7.10
2019-03-18T01:12:04.772Z,6.50
2019-03-18T01:16:12.485Z,13.30
2019-03-18T01:20:20.280Z,12.77
2019-03-18T01:24:27.998Z,9.87
2019-03-18T01:28:35.807Z,7.47
2019-03-18T01:32:43.935Z,6.43
2019-03-18T01:36:51.629Z,8.80
2019-03-18T01:40:59.753Z,7.90
2019-03-18T01:45:07.782Z,12.23
2019-03-18T01:49:15.378Z,9.90
2019-03-18T01:53:23.592Z,6.10
2019-03-18T01:57:31.704Z,7.60
2019-03-18T02:01:40.543Z,7.53
2019-03-18T02:05:48.358Z,8.80
2019-03-18T02:09:56.073Z,8.03
2019-03-18T02:14:03.788Z,12.60
2019-03-18T02:18:12.136Z,12.27
2019-03-18T02:22:20.215Z,8.47
2019-03-18T02:26:28.112Z,8.00
2019-03-18T02:30:35.931Z,7.13
2019-03-18T02:34:43.640Z,6.70
2019-03-18T02:38:51.758Z,7.07
2019-03-18T02:42:59.720Z,8.70
2019-03-18T02:47:07.660Z,7.03
2019-03-18T02:51:15.539Z,9.27
2019-03-18T02:55:23.404Z,9.37
2019-03-18T02:59:31.127Z,6.33
2019-03-18T03:03:38.925Z,9.50
2019-03-18T03:07:47.046Z,11.87
2019-03-18T03:11:54.757Z,10.20
2019-03-18T03:16:02.667Z,8.47
2019-03-18T03:20:10.439Z,8.33
2019-03-18T03:24:19.156Z,9.23
2019-03-18T03:28:25.605Z,10.57
2019-03-18T03:32:32.984Z,11.17
2019-03-18T03:36:42.224Z,12.23
2019-03-18T03:40:50.149Z,18.27
2019-03-18T03:44:57.836Z,5.43
2019-03-18T03:49:05.758Z,9.50
2019-03-18T03:53:13.979Z,14.50
2019-03-18T03:57:21.689Z,8.07
2019-03-18T04:01:29.805Z,11.60
2019-03-18T04:05:37.623Z,6.60
2019-03-18T04:09:45.416Z,8.03
2019-03-18T04:13:53.140Z,5.53
2019-03-18T04:18:01.352Z,5.00
2019-03-18T04:22:08.990Z,6.83
2019-03-18T04:26:17.072Z,11.07
2019-03-18T04:30:24.915Z,13.13
2019-03-18T04:34:32.781Z,10.53
2019-03-18T04:38:40.626Z,10.30
2019-03-18T04:42:48.221Z,9.53
2019-03-18T04:46:56.344Z,9.77
2019-03-18T04:51:04.236Z,8.67
2019-03-18T04:55:11.951Z,10.30
2019-03-18T04:59:20.076Z,6.67
2019-03-18T05:03:28.403Z,9.53
2019-03-18T05:07:35.990Z,14.03
2019-03-18T05:11:43.899Z,15.83
2019-03-18T05:15:52.030Z,79.67
2019-03-18T05:19:59.832Z,76.67
2019-03-18T05:24:07.754Z,39.97
2019-03-18T05:28:15.567Z,28.07
2019-03-18T05:32:23.273Z,14.60
2019-03-18T05:36:32.003Z,18.13
2019-03-18T05:40:39.820Z,19.27
2019-03-18T05:44:47.623Z,21.50
2019-03-18T05:48:55.741Z,29.30
2019-03-18T05:53:03.852Z,26.87
2019-03-18T05:57:12.065Z,30.30
2019-03-18T06:01:19.831Z,26.20
2019-03-18T06:05:28.006Z,26.87
2019-03-18T06:09:35.938Z,21.40
2019-03-18T06:13:44.230Z,20.13
2019-03-18T06:17:53.135Z,22.37
2019-03-18T06:22:01.277Z,13.17
2019-03-18T06:26:09.511Z,8.93
2019-03-18T06:30:17.307Z,16.23
2019-03-18T06:34:25.028Z,16.87
2019-03-18T06:38:32.734Z,15.53
2019-03-18T06:42:41.070Z,12.53
2019-03-18T06:46:48.571Z,14.97
2019-03-18T06:50:56.921Z,13.20
2019-03-18T06:55:05.103Z,18.73
2019-03-18T06:59:12.824Z,23.47
2019-03-18T07:03:21.028Z,10.27
2019-03-18T07:07:29.268Z,17.07
2019-03-18T07:11:37.040Z,21.50
2019-03-18T07:15:45.328Z,14.80
2019-03-18T07:19:53.492Z,12.90
2019-03-18T07:24:01.138Z,16.37
2019-03-18T07:28:09.206Z,12.60
2019-03-18T07:32:17.415Z,12.30
2019-03-18T07:36:25.137Z,18.10
2019-03-18T07:40:33.593Z,12.70
2019-03-18T07:44:41.366Z,13.23
2019-03-18T07:48:49.195Z,17.33
2019-03-18T07:52:57.399Z,19.23
2019-03-18T07:57:05.176Z,13.10
2019-03-18T08:01:13.525Z,28.23
2019-03-18T08:05:21.359Z,17.80
2019-03-18T08:09:29.060Z,35.33
2019-03-18T08:13:36.716Z,27.07
2019-03-18T08:17:44.880Z,17.47
2019-03-18T08:21:52.651Z,23.07
2019-03-18T08:26:00.501Z,19.07
2019-03-18T08:30:09.459Z,15.47
2019-03-18T08:34:17.173Z,12.23
2019-03-18T08:38:25.975Z,19.90
2019-03-18T08:42:34.099Z,19.97
2019-03-18T08:46:41.697Z,15.37
2019-03-18T08:50:49.873Z,13.27
2019-03-18T08:54:57.725Z,10.47
2019-03-18T08:59:05.568Z,15.60
2019-03-18T09:03:13.461Z,7.60
2019-03-18T09:07:21.782Z,11.03
2019-03-18T09:11:29.524Z,11.00
2019-03-18T09:15:37.691Z,6.17
2019-03-18T09:19:46.556Z,6.53
2019-03-18T09:23:54.842Z,7.60
2019-03-18T09:28:03.130Z,7.60
2019-03-18T09:32:10.884Z,5.17
2019-03-18T09:36:18.705Z,4.97
2019-03-18T09:40:29.151Z,5.53
2019-03-18T09:44:36.067Z,6.60
2019-03-18T09:48:43.764Z,4.20
2019-03-18T09:52:51.935Z,5.60
2019-03-18T09:56:59.583Z,10.53
2019-03-18T10:01:07.807Z,6.43
2019-03-18T10:05:15.871Z,5.27
2019-03-18T10:09:23.644Z,7.53
2019-03-18T10:13:31.685Z,8.40
2019-03-18T10:17:39.358Z,7.80
2019-03-18T10:21:47.577Z,9.57
2019-03-18T10:25:55.486Z,4.70
2019-03-18T10:30:03.399Z,9.53
2019-03-18T10:34:11.642Z,4.80
2019-03-18T10:38:19.884Z,4.35
2019-03-18T10:42:27.542Z,7.95
2019-03-18T10:46:35.967Z,6.95
2019-03-18T10:50:44.501Z,4.67
2019-03-18T10:54:52.411Z,5.35
2019-03-18T10:59:00.431Z,6.67
2019-03-18T11:03:08.438Z,7.08
2019-03-18T11:07:16.157Z,7.20
2019-03-18T11:11:23.858Z,5.80
2019-03-18T11:15:31.759Z,4.30
2019-03-18T11:19:39.571Z,9.18
2019-03-18T11:23:47.794Z,7.87
2019-03-18T11:27:55.492Z,7.13
2019-03-18T11:32:03.824Z,7.23
2019-03-18T11:36:11.958Z,9.70
2019-03-18T11:40:19.869Z,8.90
2019-03-18T11:44:27.707Z,8.90
2019-03-18T11:48:37.323Z,10.83
2019-03-18T11:52:45.395Z,12.83
2019-03-18T11:56:53.669Z,10.13
2019-03-18T12:01:01.671Z,9.83
2019-03-18T12:05:11.760Z,5.20
2019-03-18T12:09:19.659Z,4.30
2019-03-18T12:13:27.771Z,8.17
2019-03-18T12:17:35.570Z,3.80
2019-03-18T12:21:43.807Z,4.77
2019-03-18T12:25:51.339Z,4.80
2019-03-18T12:29:59.107Z,10.63
2019-03-18T12:34:07.011Z,8.10
2019-03-18T12:38:14.933Z,7.37
2019-03-18T12:42:23.064Z,6.53
2019-03-18T12:46:31.511Z,5.77
2019-03-18T12:50:55.356Z,7.57
2019-03-18T12:54:50.153Z,5.90
2019-03-18T12:58:57.880Z,8.20
2019-03-18T13:03:05.885Z,6.77
2019-03-18T13:07:13.808Z,5.80
2019-03-18T13:11:21.669Z,8.53
2019-03-18T13:15:30.677Z,8.60
2019-03-18T13:19:38.771Z,4.77
2019-03-18T13:23:46.371Z,3.93
2019-03-18T13:27:55.099Z,5.43
2019-03-18T13:32:03.487Z,7.83
2019-03-18T13:36:11.179Z,4.17
2019-03-18T13:40:19.051Z,3.70
2019-03-18T13:44:27.368Z,4.77
2019-03-18T13:48:34.978Z,4.70
2019-03-18T13:52:43.190Z,5.07
2019-03-18T13:56:52.022Z,8.10
2019-03-18T14:01:00.348Z,5.57
2019-03-18T14:05:08.705Z,6.87
2019-03-18T14:09:16.376Z,8.77
2019-03-18T14:13:24.617Z,8.80
2019-03-18T14:17:32.607Z,6.13
2019-03-18T14:21:40.319Z,7.93
2019-03-18T14:25:47.866Z,5.97
2019-03-18T14:29:55.529Z,6.47
2019-03-18T14:34:03.141Z,4.37
2019-03-18T14:38:10.844Z,6.83
2019-03-18T14:42:18.593Z,10.73
2019-03-18T14:46:26.168Z,12.07
2019-03-18T14:50:34.273Z,9.37
2019-03-18T14:54:41.879Z,9.23
2019-03-18T14:58:49.498Z,18.10
2019-03-18T15:02:57.734Z,12.03
2019-03-18T15:07:05.603Z,10.90
2019-03-18T15:11:13.268Z,13.07
2019-03-18T15:15:21.568Z,32.70
2019-03-18T15:19:29.264Z,6.53
2019-03-18T15:23:37.263Z,9.80
2019-03-18T15:27:45.273Z,14.27
2019-03-18T15:31:52.897Z,17.37
2019-03-18T15:36:01.010Z,10.10
2019-03-18T15:40:09.325Z,18.13
2019-03-18T15:44:17.126Z,23.97
2019-03-18T15:48:25.043Z,16.93
2019-03-18T15:52:32.756Z,15.97
2019-03-18T15:56:40.470Z,20.17
2019-03-18T16:00:48.779Z,23.40
2019-03-18T16:04:56.485Z,21.73
2019-03-18T16:09:06.039Z,18.63
2019-03-18T16:13:13.937Z,20.20
2019-03-18T16:17:21.562Z,20.23
2019-03-18T16:21:29.679Z,15.23
2019-03-18T16:25:38.401Z,19.13
2019-03-18T16:29:46.235Z,21.17
2019-03-18T16:33:54.448Z,26.00
2019-03-18T16:38:02.231Z,23.27
2019-03-18T16:42:10.050Z,20.73
2019-03-18T16:46:17.984Z,23.70
2019-03-18T16:50:26.151Z,26.63
2019-03-18T16:54:33.810Z,23.67
2019-03-18T16:58:42.102Z,41.83
2019-03-18T17:02:50.035Z,37.23
2019-03-18T17:06:57.835Z,46.73
2019-03-18T17:11:05.744Z,46.93
2019-03-18T17:15:13.801Z,43.60
2019-03-18T17:19:22.603Z,38.20
2019-03-18T17:23:30.522Z,41.77
2019-03-18T17:27:38.236Z,51.40
2019-03-18T17:31:46.455Z,47.77
2019-03-18T17:35:54.158Z,28.77
2019-03-18T17:40:01.903Z,40.03
2019-03-18T17:44:09.605Z,24.77
2019-03-18T17:48:18.898Z,28.70
2019-03-18T17:52:26.635Z,22.43
2019-03-18T17:56:34.753Z,21.80
2019-03-18T18:00:46.029Z,32.97
2019-03-18T18:05:02.958Z,30.90
2019-03-18T18:09:04.166Z,56.27
2019-03-18T18:13:12.111Z,28.37
2019-03-18T18:17:19.975Z,24.30
2019-03-18T18:21:28.047Z,42.13
2019-03-18T18:25:35.773Z,32.50
2019-03-18T18:29:44.170Z,32.53
2019-03-18T18:33:52.717Z,28.73
2019-03-18T18:38:00.506Z,16.90
2019-03-18T18:42:08.848Z,23.27
2019-03-18T18:46:16.653Z,18.93
2019-03-18T18:50:24.657Z,23.80
2019-03-18T18:54:32.785Z,25.83
2019-03-18T18:58:40.505Z,27.63
2019-03-18T19:02:48.619Z,24.33
2019-03-18T19:06:56.925Z,20.23
2019-03-18T19:11:04.735Z,22.60
2019-03-18T19:15:17.809Z,20.03
2019-03-18T19:19:25.564Z,17.83
2019-03-18T19:23:37.958Z,18.53
2019-03-18T19:27:43.665Z,14.67
2019-03-18T19:31:51.378Z,17.07
2019-03-18T19:35:59.692Z,13.17
2019-03-18T19:40:08.763Z,22.53
2019-03-18T19:44:16.543Z,18.27
2019-03-18T19:48:25.123Z,14.53
2019-03-18T19:52:33.290Z,14.53
2019-03-18T19:56:40.902Z,11.80
2019-03-18T20:00:49.746Z,18.60
2019-03-18T20:04:57.442Z,17.17
2019-03-18T20:09:06.641Z,18.90
2019-03-18T20:13:14.688Z,22.43
2019-03-18T20:17:23.417Z,17.03
2019-03-18T20:21:31.247Z,13.07
2019-03-18T20:25:39.052Z,16.43
2019-03-18T20:29:46.752Z,18.73
2019-03-18T20:33:54.559Z,27.13
2019-03-18T20:38:02.880Z,26.60
2019-03-18T20:42:10.600Z,18.63
2019-03-18T20:46:18.698Z,14.70
2019-03-18T20:50:26.623Z,17.33
2019-03-18T20:54:34.535Z,14.43
2019-03-18T20:58:42.433Z,13.57
2019-03-18T21:02:50.255Z,45.27
2019-03-18T21:06:59.768Z,34.57
2019-03-18T21:11:07.504Z,23.20
2019-03-18T21:15:15.427Z,17.67
2019-03-18T21:19:23.043Z,15.83
2019-03-18T21:23:30.938Z,19.03
2019-03-18T21:27:38.746Z,16.60
2019-03-18T21:31:46.866Z,13.90
2019-03-18T21:35:55.956Z,16.23
2019-03-18T21:40:03.821Z,16.83
2019-03-18T21:44:11.933Z,19.67
2019-03-18T21:48:20.061Z,18.23
2019-03-18T21:52:27.665Z,24.43
2019-03-18T21:56:35.786Z,21.93
2019-03-18T22:00:44.309Z,22.30
2019-03-18T22:04:51.749Z,12.83
2019-03-18T22:08:59.925Z,35.43
2019-03-18T22:13:07.657Z,17.50
2019-03-18T22:17:15.333Z,16.60
2019-03-18T22:21:23.654Z,10.17
2019-03-18T22:25:31.363Z,12.20
2019-03-18T22:29:39.482Z,11.87
2019-03-18T22:33:48.838Z,14.50
2019-03-18T22:37:56.533Z,11.83
2019-03-18T22:42:04.876Z,11.63
2019-03-18T22:46:12.772Z,16.03
2019-03-18T22:50:22.006Z,13.33
2019-03-18T22:54:30.313Z,10.83
2019-03-18T22:58:38.487Z,12.27
2019-03-18T23:02:46.146Z,14.10
2019-03-18T23:06:54.279Z,12.73
2019-03-18T23:11:02.388Z,9.10
2019-03-18T23:15:10.119Z,9.60
2019-03-18T23:19:20.882Z,15.03
2019-03-18T23:23:27.779Z,14.33
2019-03-18T23:27:35.383Z,14.87
2019-03-18T23:31:43.017Z,14.23
2019-03-18T23:35:50.805Z,15.93
2019-03-18T23:39:58.898Z,17.60
2019-03-18T23:44:06.827Z,8.90
2019-03-18T23:48:14.360Z,11.07
2019-03-18T23:52:23.004Z,10.43
2019-03-18T23:56:31.257Z,13.07
